Time,TemperatureF,DewpointF,PressureIn,WindDirection,WindDirectionDegrees,WindSpeedMPH,WindSpeedGustMPH,Humidity,HourlyPrecipIn,Conditions,Clouds,dailyrainin,SoftwareType,DateUTC
2013-07-14 00:02:00,77.0,72.0,30.00,SE,130,13.0,18.0,83,-99.99,,,-99.99,,2013-07-14 05:02:00,
2013-07-14 00:23:00,77.0,72.0,30.01,SE,130,10.0,21.0,83,-99.99,,,-99.99,,2013-07-14 05:23:00,
2013-07-14 00:32:00,75.0,70.0,30.01,ESE,120,9.0,-999.0,83,-99.99,,,-99.99,,2013-07-14 05:32:00,
2013-07-14 00:43:00,75.0,70.0,30.01,ESE,120,9.0,-999.0,83,-99.99,,,-99.99,,2013-07-14 05:43:00,
2013-07-14 01:01:00,77.0,72.0,30.01,ESE,120,12.0,20.0,83,-99.99,,,-99.99,,2013-07-14 06:01:00,
2013-07-14 01:22:00,77.0,70.0,30.02,SE,130,12.0,21.0,78,-99.99,,,-99.99,,2013-07-14 06:22:00,
2013-07-14 01:42:00,75.0,70.0,30.02,SE,130,8.0,-999.0,83,-99.99,,,-99.99,,2013-07-14 06:42:00,
2013-07-14 02:02:00,75.0,70.0,30.03,SE,130,8.0,-999.0,83,-99.99,,,-99.99,,2013-07-14 07:02:00,
2013-07-14 02:22:00,75.0,70.0,30.03,SE,130,6.0,-999.0,83,-99.99,,,-99.99,,2013-07-14 07:22:00,
2013-07-14 02:43:00,75.0,68.0,30.02,ESE,120,10.0,-999.0,78,-99.99,,,-99.99,,2013-07-14 07:43:00,
2013-07-14 03:01:00,73.0,66.0,30.01,SE,130,8.0,-999.0,78,-99.99,,,-99.99,,2013-07-14 08:01:00,
2013-07-14 03:22:00,73.0,66.0,30.01,SE,130,7.0,-999.0,78,-99.99,,,-99.99,,2013-07-14 08:22:00,
2013-07-14 03:32:00,73.0,66.0,30.01,SE,130,7.0,-999.0,78,-99.99,,,-99.99,,2013-07-14 08:32:00,
2013-07-14 03:42:00,73.0,66.0,30.02,North,-99,7.0,-999.0,78,-99.99,,,-99.99,,2013-07-14 08:42:00,
2013-07-14 04:01:00,73.0,66.0,30.03,SSE,150,7.0,-999.0,78,-99.99,,,-99.99,,2013-07-14 09:01:00,
2013-07-14 04:11:00,73.0,66.0,30.03,SSE,150,7.0,-999.0,78,-99.99,,,-99.99,,2013-07-14 09:11:00,
2013-07-14 04:42:00,72.0,66.0,30.03,SSE,150,13.0,20.0,83,-99.99,,,-99.99,,2013-07-14 09:42:00,
2013-07-14 05:01:00,73.0,66.0,30.04,SSE,150,10.0,17.0,78,-99.99,,,-99.99,,2013-07-14 10:01:00,
2013-07-14 05:22:00,72.0,66.0,30.04,South,180,9.0,-999.0,83,-99.99,,,-99.99,,2013-07-14 10:22:00,
2013-07-14 05:32:00,72.0,66.0,30.04,South,180,9.0,-999.0,83,-99.99,,,-99.99,,2013-07-14 10:32:00,
2013-07-14 05:42:00,72.0,66.0,30.04,SSE,150,5.0,-999.0,83,-99.99,,,-99.99,,2013-07-14 10:42:00,
2013-07-14 06:02:00,72.0,64.0,30.05,SSE,160,7.0,-999.0,78,-99.99,,,-99.99,,2013-07-14 11:02:00,
2013-07-14 06:22:00,72.0,64.0,30.04,SE,140,8.0,-999.0,78,-99.99,,,-99.99,,2013-07-14 11:22:00,
2013-07-14 06:43:00,72.0,64.0,30.06,SSE,150,7.0,-999.0,78,-99.99,,,-99.99,,2013-07-14 11:43:00,
2013-07-14 07:02:00,72.0,64.0,30.07,SSE,150,6.0,-999.0,78,-99.99,,,-99.99,,2013-07-14 12:02:00,
2013-07-14 07:11:00,72.0,64.0,30.07,SSE,150,9.0,-999.0,78,-99.99,,,-99.99,,2013-07-14 12:11:00,
2013-07-14 07:22:00,72.0,64.0,30.07,SSE,150,9.0,-999.0,78,-99.99,,,-99.99,,2013-07-14 12:22:00,
2013-07-14 07:43:00,72.0,64.0,30.07,SE,140,5.0,-999.0,78,-99.99,,,-99.99,,2013-07-14 12:43:00,
2013-07-14 08:01:00,72.0,64.0,30.08,SSE,150,7.0,-999.0,78,-99.99,,,-99.99,,2013-07-14 13:01:00,
2013-07-14 08:22:00,70.0,64.0,30.07,North,0,0.0,-999.0,82,-99.99,,,-99.99,,2013-07-14 13:22:00,
2013-07-14 08:42:00,70.0,64.0,30.07,SE,130,5.0,-999.0,82,-99.99,,,-99.99,,2013-07-14 13:42:00,
2013-07-14 08:53:00,70.0,64.0,30.07,SE,130,5.0,-999.0,82,-99.99,,,-99.99,,2013-07-14 13:53:00,
2013-07-14 09:02:00,70.0,64.0,30.08,SE,130,6.0,-999.0,82,-99.99,,,-99.99,,2013-07-14 14:02:00,
2013-07-14 09:11:00,70.0,64.0,30.08,SE,130,6.0,-999.0,82,-99.99,,,-99.99,,2013-07-14 14:11:00,
2013-07-14 09:23:00,70.0,63.0,30.09,North,0,0.0,-999.0,77,-99.99,,,-99.99,,2013-07-14 14:23:00,
2013-07-14 09:33:00,70.0,64.0,30.10,North,0,0.0,-999.0,82,-99.99,,,-99.99,,2013-07-14 14:33:00,
2013-07-14 09:43:00,70.0,64.0,30.10,North,0,0.0,-999.0,82,-99.99,,,-99.99,,2013-07-14 14:43:00,
2013-07-14 10:01:00,70.0,63.0,30.11,North,0,0.0,-999.0,77,-99.99,,,-99.99,,2013-07-14 15:01:00,
2013-07-14 10:12:00,70.0,63.0,30.11,North,0,0.0,-999.0,77,-99.99,,,-99.99,,2013-07-14 15:12:00,
2013-07-14 10:22:00,68.0,63.0,30.12,North,0,0.0,-999.0,82,-99.99,,,-99.99,,2013-07-14 15:22:00,
2013-07-14 10:42:00,68.0,63.0,30.13,ESE,120,7.0,-999.0,82,-99.99,,,-99.99,,2013-07-14 15:42:00,
2013-07-14 10:53:00,68.0,63.0,30.13,ESE,120,7.0,-999.0,82,-99.99,,,-99.99,,2013-07-14 15:53:00,
2013-07-14 11:01:00,64.0,63.0,30.14,ESE,110,6.0,-999.0,93,-99.99,,,-99.99,,2013-07-14 16:01:00,
2013-07-14 11:22:00,63.0,63.0,30.15,North,0,0.0,-999.0,100,-99.99,,,-99.99,,2013-07-14 16:22:00,
2013-07-14 11:32:00,63.0,63.0,30.15,North,0,0.0,-999.0,100,-99.99,,,-99.99,,2013-07-14 16:32:00,
2013-07-14 11:43:00,63.0,63.0,30.14,North,0,0.0,-999.0,100,-99.99,,,-99.99,,2013-07-14 16:43:00,
2013-07-14 12:02:00,64.0,64.0,30.13,North,0,0.0,-999.0,100,-99.99,,,-99.99,,2013-07-14 17:02:00,
2013-07-14 12:22:00,68.0,66.0,30.13,North,0,0.0,-999.0,93,-99.99,,,-99.99,,2013-07-14 17:22:00,
2013-07-14 12:32:00,68.0,66.0,30.13,North,0,0.0,-999.0,93,-99.99,,,-99.99,,2013-07-14 17:32:00,
2013-07-14 12:43:00,70.0,66.0,30.13,ESE,110,5.0,-999.0,88,-99.99,,,-99.99,,2013-07-14 17:43:00,
2013-07-14 13:01:00,72.0,66.0,30.12,SE,130,8.0,-999.0,83,-99.99,,,-99.99,,2013-07-14 18:01:00,
2013-07-14 13:22:00,72.0,66.0,30.12,SE,140,7.0,-999.0,83,-99.99,,,-99.99,,2013-07-14 18:22:00,
2013-07-14 13:42:00,73.0,66.0,30.13,SSE,150,7.0,-999.0,78,-99.99,,,-99.99,,2013-07-14 18:42:00,
2013-07-14 14:01:00,73.0,68.0,30.13,SE,140,5.0,-999.0,83,-99.99,,,-99.99,,2013-07-14 19:01:00,
2013-07-14 14:22:00,75.0,70.0,30.13,North,0,0.0,-999.0,83,-99.99,,,-99.99,,2013-07-14 19:22:00,
2013-07-14 14:32:00,75.0,70.0,30.13,North,0,0.0,-999.0,83,-99.99,,,-99.99,,2013-07-14 19:32:00,
2013-07-14 14:43:00,75.0,70.0,30.13,North,0,0.0,-999.0,83,-99.99,,,-99.99,,2013-07-14 19:43:00,
2013-07-14 15:01:00,77.0,70.0,30.13,SE,130,5.0,-999.0,78,-99.99,,,-99.99,,2013-07-14 20:01:00,
2013-07-14 15:22:00,77.0,70.0,30.13,SE,130,7.0,-999.0,78,-99.99,,,-99.99,,2013-07-14 20:22:00,
2013-07-14 15:32:00,75.0,68.0,30.13,SE,130,5.0,-999.0,78,-99.99,,,-99.99,,2013-07-14 20:32:00,
2013-07-14 15:43:00,75.0,68.0,30.13,SE,130,5.0,-999.0,78,-99.99,,,-99.99,,2013-07-14 20:43:00,
2013-07-14 16:01:00,77.0,68.0,30.14,North,0,0.0,-999.0,73,-99.99,,,-99.99,,2013-07-14 21:01:00,
2013-07-14 16:11:00,79.0,70.0,30.13,North,0,0.0,-999.0,73,-99.99,,,-99.99,,2013-07-14 21:11:00,
2013-07-14 16:22:00,79.0,70.0,30.13,North,0,0.0,-999.0,73,-99.99,,,-99.99,,2013-07-14 21:22:00,
2013-07-14 16:43:00,79.0,70.0,30.13,North,0,0.0,-999.0,73,-99.99,,,-99.99,,2013-07-14 21:43:00,
2013-07-14 17:01:00,79.0,70.0,30.13,North,0,0.0,-999.0,73,-99.99,,,-99.99,,2013-07-14 22:01:00,
2013-07-14 17:22:00,79.0,72.0,30.14,North,0,0.0,-999.0,78,-99.99,,,-99.99,,2013-07-14 22:22:00,
2013-07-14 17:42:00,79.0,72.0,30.14,North,0,0.0,-999.0,78,-99.99,,,-99.99,,2013-07-14 22:42:00,
2013-07-14 18:01:00,79.0,72.0,30.14,North,350,6.0,-999.0,78,-99.99,,,-99.99,,2013-07-14 23:01:00,
2013-07-14 18:22:00,75.0,72.0,30.14,North,360,6.0,-999.0,88,-99.99,,,-99.99,,2013-07-14 23:22:00,
2013-07-14 18:42:00,75.0,72.0,30.13,North,350,7.0,-999.0,88,-99.99,,,-99.99,,2013-07-14 23:42:00,
2013-07-14 19:02:00,73.0,70.0,30.13,North,350,6.0,-999.0,88,-99.99,,,-99.99,,2013-07-15 00:02:00,
2013-07-14 19:22:00,73.0,70.0,30.13,North,10,5.0,-999.0,88,-99.99,,,-99.99,,2013-07-15 00:22:00,
2013-07-14 19:32:00,73.0,70.0,30.13,North,10,5.0,-999.0,88,-99.99,,,-99.99,,2013-07-15 00:32:00,
2013-07-14 19:43:00,73.0,72.0,30.14,North,0,0.0,-999.0,94,-99.99,,,-99.99,,2013-07-15 00:43:00,
2013-07-14 20:01:00,73.0,72.0,30.14,North,0,0.0,-999.0,94,-99.99,,,-99.99,,2013-07-15 01:01:00,
2013-07-14 20:22:00,73.0,72.0,30.14,North,0,0.0,-999.0,94,-99.99,,,-99.99,,2013-07-15 01:22:00,
2013-07-14 20:32:00,73.0,72.0,30.15,North,0,0.0,-999.0,94,-99.99,,,-99.99,,2013-07-15 01:32:00,
2013-07-14 20:43:00,73.0,72.0,30.15,North,0,0.0,-999.0,94,-99.99,,,-99.99,,2013-07-15 01:43:00,
2013-07-14 21:02:00,73.0,72.0,30.15,North,0,0.0,-999.0,94,-99.99,,,-99.99,,2013-07-15 02:02:00,
2013-07-14 21:22:00,73.0,72.0,30.16,North,0,0.0,-999.0,94,-99.99,,,-99.99,,2013-07-15 02:22:00,
2013-07-14 21:42:00,73.0,72.0,30.16,North,0,0.0,-999.0,94,-99.99,,,-99.99,,2013-07-15 02:42:00,
2013-07-14 22:02:00,73.0,72.0,30.17,North,0,0.0,-999.0,94,-99.99,,,-99.99,,2013-07-15 03:02:00,
2013-07-14 22:22:00,72.0,70.0,30.18,North,0,0.0,-999.0,94,-99.99,,,-99.99,,2013-07-15 03:22:00,
2013-07-14 22:32:00,72.0,70.0,30.18,North,0,0.0,-999.0,94,-99.99,,,-99.99,,2013-07-15 03:32:00,
2013-07-14 22:43:00,72.0,70.0,30.18,North,0,0.0,-999.0,94,-99.99,,,-99.99,,2013-07-15 03:43:00,
2013-07-14 23:01:00,72.0,70.0,30.19,North,0,0.0,-999.0,94,-99.99,,,-99.99,,2013-07-15 04:01:00,
2013-07-14 23:22:00,72.0,70.0,30.19,North,0,0.0,-999.0,94,-99.99,,,-99.99,,2013-07-15 04:22:00,
2013-07-14 23:42:00,72.0,70.0,30.20,North,0,0.0,-999.0,94,-99.99,,,-99.99,,2013-07-15 04:42:00,